sensor_id;sensor_type;location;lat;lon;timestamp;temperature;humidity
17565;DHT22;55308;52.134;5.606;2022-07-18T00:01:48;18.50;99.90
17565;DHT22;55308;52.134;5.606;2022-07-18T00:04:15;18.50;99.90
17565;DHT22;55308;52.134;5.606;2022-07-18T00:06:42;18.50;99.90
17565;DHT22;55308;52.134;5.606;2022-07-18T00:09:08;18.50;99.90
17565;DHT22;55308;52.134;5.606;2022-07-18T00:11:35;18.40;99.90
17565;DHT22;55308;52.134;5.606;2022-07-18T00:14:02;18.50;99.90
17565;DHT22;55308;52.134;5.606;2022-07-18T00:16:30;18.40;99.90
17565;DHT22;55308;52.134;5.606;2022-07-18T00:18:57;18.40;99.90
17565;DHT22;55308;52.134;5.606;2022-07-18T00:21:25;18.30;99.90
17565;DHT22;55308;52.134;5.606;2022-07-18T00:23:52;18.20;99.90
17565;DHT22;55308;52.134;5.606;2022-07-18T00:26:18;18.20;99.90
17565;DHT22;55308;52.134;5.606;2022-07-18T00:28:45;18.10;99.90
17565;DHT22;55308;52.134;5.606;2022-07-18T00:31:12;18.00;99.90
17565;DHT22;55308;52.134;5.606;2022-07-18T00:33:40;18.00;99.90
17565;DHT22;55308;52.134;5.606;2022-07-18T00:36:07;17.80;99.90
17565;DHT22;55308;52.134;5.606;2022-07-18T00:38:34;17.80;99.90
17565;DHT22;55308;52.134;5.606;2022-07-18T00:41:01;17.80;99.90
17565;DHT22;55308;52.134;5.606;2022-07-18T00:43:27;18.00;99.90
17565;DHT22;55308;52.134;5.606;2022-07-18T00:45:54;18.00;99.90
17565;DHT22;55308;52.134;5.606;2022-07-18T00:48:21;18.00;99.90
17565;DHT22;55308;52.134;5.606;2022-07-18T00:50:49;18.10;99.90
17565;DHT22;55308;52.134;5.606;2022-07-18T00:53:16;18.00;99.90
17565;DHT22;55308;52.134;5.606;2022-07-18T00:55:44;18.00;99.90
17565;DHT22;55308;52.134;5.606;2022-07-18T00:58:12;17.90;99.90
17565;DHT22;55308;52.134;5.606;2022-07-18T01:00:39;17.90;99.90
17565;DHT22;55308;52.134;5.606;2022-07-18T01:03:24;18.00;99.90
17565;DHT22;55308;52.134;5.606;2022-07-18T01:05:53;18.00;99.90
17565;DHT22;55308;52.134;5.606;2022-07-18T01:08:19;18.00;99.90
17565;DHT22;55308;52.134;5.606;2022-07-18T01:10:46;17.90;99.90
17565;DHT22;55308;52.134;5.606;2022-07-18T01:13:13;17.90;99.90
17565;DHT22;55308;52.134;5.606;2022-07-18T01:15:40;17.90;99.90
17565;DHT22;55308;52.134;5.606;2022-07-18T01:18:07;17.80;99.90
17565;DHT22;55308;52.134;5.606;2022-07-18T01:20:35;17.90;99.90
17565;DHT22;55308;52.134;5.606;2022-07-18T01:23:02;17.90;99.90
17565;DHT22;55308;52.134;5.606;2022-07-18T01:25:29;17.80;99.90
17565;DHT22;55308;52.134;5.606;2022-07-18T01:27:55;17.60;99.90
17565;DHT22;55308;52.134;5.606;2022-07-18T01:30:23;17.60;99.90
17565;DHT22;55308;52.134;5.606;2022-07-18T01:32:55;17.60;99.90
17565;DHT22;55308;52.134;5.606;2022-07-18T01:35:23;17.60;99.90
17565;DHT22;55308;52.134;5.606;2022-07-18T01:37:52;17.60;99.90
17565;DHT22;55308;52.134;5.606;2022-07-18T01:40:18;17.50;99.90
17565;DHT22;55308;52.134;5.606;2022-07-18T01:42:45;17.40;99.90
17565;DHT22;55308;52.134;5.606;2022-07-18T01:45:12;17.40;99.90
17565;DHT22;55308;52.134;5.606;2022-07-18T01:47:39;17.40;99.90
17565;DHT22;55308;52.134;5.606;2022-07-18T01:50:07;17.40;99.90
17565;DHT22;55308;52.134;5.606;2022-07-18T01:52:33;17.40;99.90
17565;DHT22;55308;52.134;5.606;2022-07-18T01:55:03;17.40;99.90
17565;DHT22;55308;52.134;5.606;2022-07-18T01:57:30;17.40;99.90
17565;DHT22;55308;52.134;5.606;2022-07-18T01:59:56;17.30;99.90
17565;DHT22;55308;52.134;5.606;2022-07-18T02:02:23;17.30;99.90
17565;DHT22;55308;52.134;5.606;2022-07-18T02:04:50;17.30;99.90
17565;DHT22;55308;52.134;5.606;2022-07-18T02:07:26;17.30;99.90
17565;DHT22;55308;52.134;5.606;2022-07-18T02:09:53;17.30;99.90
17565;DHT22;55308;52.134;5.606;2022-07-18T02:12:21;17.10;99.90
17565;DHT22;55308;52.134;5.606;2022-07-18T02:14:48;16.80;99.90
17565;DHT22;55308;52.134;5.606;2022-07-18T02:17:15;16.90;99.90
17565;DHT22;55308;52.134;5.606;2022-07-18T02:19:42;17.00;99.90
17565;DHT22;55308;52.134;5.606;2022-07-18T02:22:09;17.10;99.90
17565;DHT22;55308;52.134;5.606;2022-07-18T02:24:36;17.20;99.90
17565;DHT22;55308;52.134;5.606;2022-07-18T02:27:03;17.10;99.90
17565;DHT22;55308;52.134;5.606;2022-07-18T02:29:31;16.90;99.90
17565;DHT22;55308;52.134;5.606;2022-07-18T02:31:58;16.80;99.90
17565;DHT22;55308;52.134;5.606;2022-07-18T02:34:25;16.80;99.90
17565;DHT22;55308;52.134;5.606;2022-07-18T02:36:52;16.70;99.90
17565;DHT22;55308;52.134;5.606;2022-07-18T02:39:19;16.60;99.90
17565;DHT22;55308;52.134;5.606;2022-07-18T02:41:46;16.40;99.90
17565;DHT22;55308;52.134;5.606;2022-07-18T02:44:12;16.50;99.90
17565;DHT22;55308;52.134;5.606;2022-07-18T02:46:41;16.60;99.90
17565;DHT22;55308;52.134;5.606;2022-07-18T02:49:08;16.60;99.90
17565;DHT22;55308;52.134;5.606;2022-07-18T02:51:35;16.60;99.90
17565;DHT22;55308;52.134;5.606;2022-07-18T02:54:02;16.60;99.90
17565;DHT22;55308;52.134;5.606;2022-07-18T02:56:29;16.50;99.90
17565;DHT22;55308;52.134;5.606;2022-07-18T02:58:56;16.30;99.90
17565;DHT22;55308;52.134;5.606;2022-07-18T03:01:22;16.20;99.90
17565;DHT22;55308;52.134;5.606;2022-07-18T03:03:50;16.10;99.90
17565;DHT22;55308;52.134;5.606;2022-07-18T03:06:17;16.10;99.90
17565;DHT22;55308;52.134;5.606;2022-07-18T03:08:44;16.00;99.90
17565;DHT22;55308;52.134;5.606;2022-07-18T03:11:10;16.00;99.90
17565;DHT22;55308;52.134;5.606;2022-07-18T03:13:37;16.00;99.90
17565;DHT22;55308;52.134;5.606;2022-07-18T03:16:04;16.10;99.90
17565;DHT22;55308;52.134;5.606;2022-07-18T03:18:31;16.10;99.90
17565;DHT22;55308;52.134;5.606;2022-07-18T03:20:59;16.20;99.90
17565;DHT22;55308;52.134;5.606;2022-07-18T03:23:26;16.20;99.90
17565;DHT22;55308;52.134;5.606;2022-07-18T03:25:52;16.10;99.90
17565;DHT22;55308;52.134;5.606;2022-07-18T03:28:19;16.10;99.90
17565;DHT22;55308;52.134;5.606;2022-07-18T03:30:46;16.20;99.90
17565;DHT22;55308;52.134;5.606;2022-07-18T03:33:12;16.20;99.90
17565;DHT22;55308;52.134;5.606;2022-07-18T03:35:39;16.20;99.90
17565;DHT22;55308;52.134;5.606;2022-07-18T03:38:07;16.20;99.90
17565;DHT22;55308;52.134;5.606;2022-07-18T03:40:34;16.10;99.90
17565;DHT22;55308;52.134;5.606;2022-07-18T03:43:01;16.10;99.90
17565;DHT22;55308;52.134;5.606;2022-07-18T03:45:28;16.10;99.90
17565;DHT22;55308;52.134;5.606;2022-07-18T03:47:54;16.20;99.90
17565;DHT22;55308;52.134;5.606;2022-07-18T03:50:21;16.10;99.90
17565;DHT22;55308;52.134;5.606;2022-07-18T03:52:48;16.20;99.90
17565;DHT22;55308;52.134;5.606;2022-07-18T03:55:17;16.20;99.90
17565;DHT22;55308;52.134;5.606;2022-07-18T03:57:43;16.40;99.90
17565;DHT22;55308;52.134;5.606;2022-07-18T04:00:11;16.50;99.90
17565;DHT22;55308;52.134;5.606;2022-07-18T04:02:39;16.50;99.90
17565;DHT22;55308;52.134;5.606;2022-07-18T04:05:06;16.40;99.90
17565;DHT22;55308;52.134;5.606;2022-07-18T04:07:33;16.20;99.90
17565;DHT22;55308;52.134;5.606;2022-07-18T04:10:00;16.10;99.90
17565;DHT22;55308;52.134;5.606;2022-07-18T04:12:28;16.10;99.90
17565;DHT22;55308;52.134;5.606;2022-07-18T04:14:56;16.00;99.90
17565;DHT22;55308;52.134;5.606;2022-07-18T04:17:22;16.10;99.90
17565;DHT22;55308;52.134;5.606;2022-07-18T04:19:49;16.10;99.90
17565;DHT22;55308;52.134;5.606;2022-07-18T04:22:16;16.10;99.90
17565;DHT22;55308;52.134;5.606;2022-07-18T04:24:43;16.20;99.90
17565;DHT22;55308;52.134;5.606;2022-07-18T04:27:09;16.40;99.90
17565;DHT22;55308;52.134;5.606;2022-07-18T04:29:38;16.60;99.90
17565;DHT22;55308;52.134;5.606;2022-07-18T04:32:05;16.90;99.90
17565;DHT22;55308;52.134;5.606;2022-07-18T04:34:32;17.20;99.90
17565;DHT22;55308;52.134;5.606;2022-07-18T04:36:59;17.30;99.90
17565;DHT22;55308;52.134;5.606;2022-07-18T04:39:26;17.20;99.90
17565;DHT22;55308;52.134;5.606;2022-07-18T04:41:52;17.20;99.90
17565;DHT22;55308;52.134;5.606;2022-07-18T04:44:20;17.40;99.90
17565;DHT22;55308;52.134;5.606;2022-07-18T04:46:48;17.40;99.90
17565;DHT22;55308;52.134;5.606;2022-07-18T04:49:15;17.20;99.90
17565;DHT22;55308;52.134;5.606;2022-07-18T04:51:42;17.20;99.90
17565;DHT22;55308;52.134;5.606;2022-07-18T04:54:08;17.30;99.90
17565;DHT22;55308;52.134;5.606;2022-07-18T04:56:37;17.40;99.90
17565;DHT22;55308;52.134;5.606;2022-07-18T04:59:04;17.20;99.90
17565;DHT22;55308;52.134;5.606;2022-07-18T05:01:31;17.50;99.90
17565;DHT22;55308;52.134;5.606;2022-07-18T05:03:59;17.40;99.90
17565;DHT22;55308;52.134;5.606;2022-07-18T05:06:26;17.60;99.90
17565;DHT22;55308;52.134;5.606;2022-07-18T05:08:52;17.60;99.90
17565;DHT22;55308;52.134;5.606;2022-07-18T05:11:19;17.60;99.90
17565;DHT22;55308;52.134;5.606;2022-07-18T05:13:46;17.80;99.90
17565;DHT22;55308;52.134;5.606;2022-07-18T05:16:12;18.20;99.90
17565;DHT22;55308;52.134;5.606;2022-07-18T05:18:39;18.50;99.90
17565;DHT22;55308;52.134;5.606;2022-07-18T05:21:07;18.60;99.90
17565;DHT22;55308;52.134;5.606;2022-07-18T05:23:34;18.80;99.90
17565;DHT22;55308;52.134;5.606;2022-07-18T05:26:01;18.80;99.90
17565;DHT22;55308;52.134;5.606;2022-07-18T05:28:27;18.90;99.90
17565;DHT22;55308;52.134;5.606;2022-07-18T05:30:54;18.80;99.90
17565;DHT22;55308;52.134;5.606;2022-07-18T05:33:21;18.80;99.90
17565;DHT22;55308;52.134;5.606;2022-07-18T05:35:47;18.60;99.90
17565;DHT22;55308;52.134;5.606;2022-07-18T05:38:16;18.70;99.90
17565;DHT22;55308;52.134;5.606;2022-07-18T05:40:42;19.30;99.90
17565;DHT22;55308;52.134;5.606;2022-07-18T05:43:09;20.20;99.90
17565;DHT22;55308;52.134;5.606;2022-07-18T05:45:36;20.80;99.90
17565;DHT22;55308;52.134;5.606;2022-07-18T05:48:04;21.60;99.90
17565;DHT22;55308;52.134;5.606;2022-07-18T05:50:31;22.10;99.90
17565;DHT22;55308;52.134;5.606;2022-07-18T05:52:58;22.60;99.90
17565;DHT22;55308;52.134;5.606;2022-07-18T05:55:26;23.30;99.90
17565;DHT22;55308;52.134;5.606;2022-07-18T05:57:53;23.90;99.90
17565;DHT22;55308;52.134;5.606;2022-07-18T06:00:20;24.70;99.90
17565;DHT22;55308;52.134;5.606;2022-07-18T06:02:48;24.80;99.90
17565;DHT22;55308;52.134;5.606;2022-07-18T06:05:15;26.00;99.90
17565;DHT22;55308;52.134;5.606;2022-07-18T06:07:42;26.10;99.90
17565;DHT22;55308;52.134;5.606;2022-07-18T06:10:09;26.30;99.90
17565;DHT22;55308;52.134;5.606;2022-07-18T06:12:38;26.20;99.90
17565;DHT22;55308;52.134;5.606;2022-07-18T06:15:06;26.80;99.90
17565;DHT22;55308;52.134;5.606;2022-07-18T06:17:33;27.40;99.90
17565;DHT22;55308;52.134;5.606;2022-07-18T06:20:00;27.50;99.90
17565;DHT22;55308;52.134;5.606;2022-07-18T06:22:29;28.10;99.90
17565;DHT22;55308;52.134;5.606;2022-07-18T06:24:56;28.60;99.90
17565;DHT22;55308;52.134;5.606;2022-07-18T06:27:23;28.60;99.90
17565;DHT22;55308;52.134;5.606;2022-07-18T06:29:51;29.40;99.90
17565;DHT22;55308;52.134;5.606;2022-07-18T06:32:17;29.60;99.90
17565;DHT22;55308;52.134;5.606;2022-07-18T06:34:44;30.00;99.90
17565;DHT22;55308;52.134;5.606;2022-07-18T06:37:11;30.30;99.90
17565;DHT22;55308;52.134;5.606;2022-07-18T06:39:37;30.10;99.90
17565;DHT22;55308;52.134;5.606;2022-07-18T06:42:04;30.30;99.90
17565;DHT22;55308;52.134;5.606;2022-07-18T06:44:31;30.90;99.90
17565;DHT22;55308;52.134;5.606;2022-07-18T06:46:59;31.90;99.90
17565;DHT22;55308;52.134;5.606;2022-07-18T06:49:26;32.60;99.90
17565;DHT22;55308;52.134;5.606;2022-07-18T06:51:53;33.00;99.90
17565;DHT22;55308;52.134;5.606;2022-07-18T06:54:19;33.30;99.90
17565;DHT22;55308;52.134;5.606;2022-07-18T06:56:51;32.90;99.90
17565;DHT22;55308;52.134;5.606;2022-07-18T06:59:18;33.30;99.90
17565;DHT22;55308;52.134;5.606;2022-07-18T07:01:45;34.30;99.90
17565;DHT22;55308;52.134;5.606;2022-07-18T07:04:13;34.40;99.90
17565;DHT22;55308;52.134;5.606;2022-07-18T07:06:40;33.60;99.90
17565;DHT22;55308;52.134;5.606;2022-07-18T07:09:07;33.10;99.90
17565;DHT22;55308;52.134;5.606;2022-07-18T07:11:33;33.70;99.90
17565;DHT22;55308;52.134;5.606;2022-07-18T07:14:00;34.80;99.90
17565;DHT22;55308;52.134;5.606;2022-07-18T07:16:27;35.50;99.90
17565;DHT22;55308;52.134;5.606;2022-07-18T07:18:54;35.90;99.90
17565;DHT22;55308;52.134;5.606;2022-07-18T07:21:22;35.90;99.90
17565;DHT22;55308;52.134;5.606;2022-07-18T07:23:48;36.80;99.90
17565;DHT22;55308;52.134;5.606;2022-07-18T07:26:15;36.30;99.90
17565;DHT22;55308;52.134;5.606;2022-07-18T07:28:42;36.40;99.90
17565;DHT22;55308;52.134;5.606;2022-07-18T07:31:09;37.40;99.90
17565;DHT22;55308;52.134;5.606;2022-07-18T07:33:36;37.40;99.90
17565;DHT22;55308;52.134;5.606;2022-07-18T07:36:03;38.00;99.90
17565;DHT22;55308;52.134;5.606;2022-07-18T07:38:32;36.70;99.90
17565;DHT22;55308;52.134;5.606;2022-07-18T07:40:59;36.20;99.90
17565;DHT22;55308;52.134;5.606;2022-07-18T07:43:27;37.00;99.90
17565;DHT22;55308;52.134;5.606;2022-07-18T07:45:53;37.20;99.90
17565;DHT22;55308;52.134;5.606;2022-07-18T07:48:21;37.70;99.90
17565;DHT22;55308;52.134;5.606;2022-07-18T07:50:48;38.30;99.50
17565;DHT22;55308;52.134;5.606;2022-07-18T07:53:16;38.00;99.50
17565;DHT22;55308;52.134;5.606;2022-07-18T07:55:44;38.10;99.50
17565;DHT22;55308;52.134;5.606;2022-07-18T07:58:11;37.10;99.20
17565;DHT22;55308;52.134;5.606;2022-07-18T08:00:38;37.00;99.10
17565;DHT22;55308;52.134;5.606;2022-07-18T08:03:06;38.30;98.10
17565;DHT22;55308;52.134;5.606;2022-07-18T08:05:35;38.80;98.20
17565;DHT22;55308;52.134;5.606;2022-07-18T08:08:03;38.30;97.20
17565;DHT22;55308;52.134;5.606;2022-07-18T08:10:31;38.80;96.80
17565;DHT22;55308;52.134;5.606;2022-07-18T08:12:59;39.90;95.00
17565;DHT22;55308;52.134;5.606;2022-07-18T08:15:26;37.80;94.40
17565;DHT22;55308;52.134;5.606;2022-07-18T08:17:53;38.10;94.80
17565;DHT22;55308;52.134;5.606;2022-07-18T08:20:20;38.90;95.00
17565;DHT22;55308;52.134;5.606;2022-07-18T08:22:54;39.40;95.20
17565;DHT22;55308;52.134;5.606;2022-07-18T08:25:22;39.90;94.20
17565;DHT22;55308;52.134;5.606;2022-07-18T08:27:49;39.50;94.00
17565;DHT22;55308;52.134;5.606;2022-07-18T08:30:17;39.50;94.10
17565;DHT22;55308;52.134;5.606;2022-07-18T08:32:44;39.60;94.50
17565;DHT22;55308;52.134;5.606;2022-07-18T08:35:11;39.70;94.50
17565;DHT22;55308;52.134;5.606;2022-07-18T08:37:38;38.00;94.20
17565;DHT22;55308;52.134;5.606;2022-07-18T08:40:06;38.30;94.60
17565;DHT22;55308;52.134;5.606;2022-07-18T08:42:33;38.70;94.50
17565;DHT22;55308;52.134;5.606;2022-07-18T08:45:01;37.30;94.10
17565;DHT22;55308;52.134;5.606;2022-07-18T08:47:30;39.10;95.10
17565;DHT22;55308;52.134;5.606;2022-07-18T08:49:57;40.10;93.50
17565;DHT22;55308;52.134;5.606;2022-07-18T08:52:24;40.40;93.00
17565;DHT22;55308;52.134;5.606;2022-07-18T08:54:51;40.00;92.60
17565;DHT22;55308;52.134;5.606;2022-07-18T08:57:18;39.60;92.30
17565;DHT22;55308;52.134;5.606;2022-07-18T08:59:45;40.70;90.60
17565;DHT22;55308;52.134;5.606;2022-07-18T09:02:11;41.20;99.90
17565;DHT22;55308;52.134;5.606;2022-07-18T09:04:41;39.70;89.70
17565;DHT22;55308;52.134;5.606;2022-07-18T09:07:09;40.00;89.00
17565;DHT22;55308;52.134;5.606;2022-07-18T09:09:36;40.90;89.20
17565;DHT22;55308;52.134;5.606;2022-07-18T09:12:05;40.30;90.00
17565;DHT22;55308;52.134;5.606;2022-07-18T09:14:35;40.20;89.10
17565;DHT22;55308;52.134;5.606;2022-07-18T09:17:07;38.70;90.40
17565;DHT22;55308;52.134;5.606;2022-07-18T09:19:34;38.40;89.50
17565;DHT22;55308;52.134;5.606;2022-07-18T09:22:17;39.30;88.60
17565;DHT22;55308;52.134;5.606;2022-07-18T09:24:58;39.30;88.40
17565;DHT22;55308;52.134;5.606;2022-07-18T09:27:27;39.80;88.20
17565;DHT22;55308;52.134;5.606;2022-07-18T09:30:18;40.40;90.00
17565;DHT22;55308;52.134;5.606;2022-07-18T09:32:47;39.40;84.80
17565;DHT22;55308;52.134;5.606;2022-07-18T09:35:17;38.70;86.00
17565;DHT22;55308;52.134;5.606;2022-07-18T09:37:58;38.60;86.80
17565;DHT22;55308;52.134;5.606;2022-07-18T09:40:28;37.30;90.60
17565;DHT22;55308;52.134;5.606;2022-07-18T09:42:56;36.40;90.20
17565;DHT22;55308;52.134;5.606;2022-07-18T09:45:25;35.90;99.90
17565;DHT22;55308;52.134;5.606;2022-07-18T09:47:53;34.90;99.90
17565;DHT22;55308;52.134;5.606;2022-07-18T09:50:22;34.50;99.90
17565;DHT22;55308;52.134;5.606;2022-07-18T09:52:58;33.80;99.90
17565;DHT22;55308;52.134;5.606;2022-07-18T09:55:25;32.90;99.90
17565;DHT22;55308;52.134;5.606;2022-07-18T09:58:00;33.90;99.90
17565;DHT22;55308;52.134;5.606;2022-07-18T10:00:29;34.50;99.90
17565;DHT22;55308;52.134;5.606;2022-07-18T10:02:57;34.80;99.90
17565;DHT22;55308;52.134;5.606;2022-07-18T10:05:25;36.20;99.90
17565;DHT22;55308;52.134;5.606;2022-07-18T10:07:52;37.30;99.90
17565;DHT22;55308;52.134;5.606;2022-07-18T10:10:21;38.50;99.90
17565;DHT22;55308;52.134;5.606;2022-07-18T10:12:51;39.40;99.90
17565;DHT22;55308;52.134;5.606;2022-07-18T10:15:20;40.10;99.90
17565;DHT22;55308;52.134;5.606;2022-07-18T10:17:47;40.00;99.90
17565;DHT22;55308;52.134;5.606;2022-07-18T10:20:13;39.90;99.90
17565;DHT22;55308;52.134;5.606;2022-07-18T10:22:41;40.40;99.90
17565;DHT22;55308;52.134;5.606;2022-07-18T10:25:09;39.30;99.90
17565;DHT22;55308;52.134;5.606;2022-07-18T10:27:52;40.70;99.90
17565;DHT22;55308;52.134;5.606;2022-07-18T10:30:30;41.80;92.70
17565;DHT22;55308;52.134;5.606;2022-07-18T10:32:57;41.00;76.60
17565;DHT22;55308;52.134;5.606;2022-07-18T10:35:58;39.90;79.50
17565;DHT22;55308;52.134;5.606;2022-07-18T10:38:25;41.00;83.90
17565;DHT22;55308;52.134;5.606;2022-07-18T10:41:05;40.30;79.40
17565;DHT22;55308;52.134;5.606;2022-07-18T10:43:44;39.50;77.50
17565;DHT22;55308;52.134;5.606;2022-07-18T10:46:12;38.80;78.00
17565;DHT22;55308;52.134;5.606;2022-07-18T10:49:00;37.90;78.30
17565;DHT22;55308;52.134;5.606;2022-07-18T10:51:31;37.30;80.90
17565;DHT22;55308;52.134;5.606;2022-07-18T10:54:10;37.20;84.50
17565;DHT22;55308;52.134;5.606;2022-07-18T10:57:09;37.00;81.30
17565;DHT22;55308;52.134;5.606;2022-07-18T10:59:59;35.80;81.50
17565;DHT22;55308;52.134;5.606;2022-07-18T11:02:32;35.80;84.00
17565;DHT22;55308;52.134;5.606;2022-07-18T11:04:59;35.40;84.50
17565;DHT22;55308;52.134;5.606;2022-07-18T11:07:26;35.60;85.80
17565;DHT22;55308;52.134;5.606;2022-07-18T11:09:53;35.30;87.30
17565;DHT22;55308;52.134;5.606;2022-07-18T11:12:26;35.60;88.20
17565;DHT22;55308;52.134;5.606;2022-07-18T11:15:18;35.50;84.00
17565;DHT22;55308;52.134;5.606;2022-07-18T11:17:56;34.80;86.30
17565;DHT22;55308;52.134;5.606;2022-07-18T11:20:41;34.80;85.00
17565;DHT22;55308;52.134;5.606;2022-07-18T11:23:16;34.70;84.80
17565;DHT22;55308;52.134;5.606;2022-07-18T11:25:44;35.30;84.50
17565;DHT22;55308;52.134;5.606;2022-07-18T11:28:11;35.20;85.40
17565;DHT22;55308;52.134;5.606;2022-07-18T11:30:40;35.20;85.70
17565;DHT22;55308;52.134;5.606;2022-07-18T11:33:20;34.90;84.20
17565;DHT22;55308;52.134;5.606;2022-07-18T11:35:49;34.90;89.00
17565;DHT22;55308;52.134;5.606;2022-07-18T11:38:16;34.60;85.60
17565;DHT22;55308;52.134;5.606;2022-07-18T11:40:52;34.40;84.50
17565;DHT22;55308;52.134;5.606;2022-07-18T11:43:20;34.50;85.30
17565;DHT22;55308;52.134;5.606;2022-07-18T11:45:58;34.40;87.50
17565;DHT22;55308;52.134;5.606;2022-07-18T11:48:25;34.20;86.00
17565;DHT22;55308;52.134;5.606;2022-07-18T11:50:52;34.00;90.30
17565;DHT22;55308;52.134;5.606;2022-07-18T11:53:19;34.00;85.50
17565;DHT22;55308;52.134;5.606;2022-07-18T11:55:45;33.60;85.60
17565;DHT22;55308;52.134;5.606;2022-07-18T11:58:15;33.60;86.60
17565;DHT22;55308;52.134;5.606;2022-07-18T12:00:42;33.70;87.00
17565;DHT22;55308;52.134;5.606;2022-07-18T12:03:12;33.90;88.70
17565;DHT22;55308;52.134;5.606;2022-07-18T12:05:41;34.00;90.00
17565;DHT22;55308;52.134;5.606;2022-07-18T12:08:28;34.00;88.10
17565;DHT22;55308;52.134;5.606;2022-07-18T12:11:13;34.20;87.60
17565;DHT22;55308;52.134;5.606;2022-07-18T12:13:42;34.10;85.90
17565;DHT22;55308;52.134;5.606;2022-07-18T12:16:21;33.90;89.30
17565;DHT22;55308;52.134;5.606;2022-07-18T12:18:50;33.90;91.40
17565;DHT22;55308;52.134;5.606;2022-07-18T12:21:17;33.90;90.00
17565;DHT22;55308;52.134;5.606;2022-07-18T12:23:44;34.10;88.80
17565;DHT22;55308;52.134;5.606;2022-07-18T12:26:26;34.00;89.00
17565;DHT22;55308;52.134;5.606;2022-07-18T12:29:04;33.90;89.90
17565;DHT22;55308;52.134;5.606;2022-07-18T12:31:38;34.00;89.90
17565;DHT22;55308;52.134;5.606;2022-07-18T12:34:11;34.10;91.70
17565;DHT22;55308;52.134;5.606;2022-07-18T12:36:52;33.90;90.00
17565;DHT22;55308;52.134;5.606;2022-07-18T12:39:29;33.90;84.90
17565;DHT22;55308;52.134;5.606;2022-07-18T12:41:57;33.60;83.10
17565;DHT22;55308;52.134;5.606;2022-07-18T12:44:24;33.60;82.80
17565;DHT22;55308;52.134;5.606;2022-07-18T12:46:51;33.50;85.10
17565;DHT22;55308;52.134;5.606;2022-07-18T12:49:19;33.60;83.60
17565;DHT22;55308;52.134;5.606;2022-07-18T12:51:46;33.70;84.50
17565;DHT22;55308;52.134;5.606;2022-07-18T12:54:13;33.80;85.50
17565;DHT22;55308;52.134;5.606;2022-07-18T12:56:40;33.60;86.60
17565;DHT22;55308;52.134;5.606;2022-07-18T12:59:06;33.80;86.70
17565;DHT22;55308;52.134;5.606;2022-07-18T13:01:34;34.00;85.20
17565;DHT22;55308;52.134;5.606;2022-07-18T13:04:01;33.80;85.30
17565;DHT22;55308;52.134;5.606;2022-07-18T13:06:30;34.00;84.00
17565;DHT22;55308;52.134;5.606;2022-07-18T13:08:57;34.00;85.80
17565;DHT22;55308;52.134;5.606;2022-07-18T13:11:23;34.10;86.20
17565;DHT22;55308;52.134;5.606;2022-07-18T13:13:51;34.30;85.90
17565;DHT22;55308;52.134;5.606;2022-07-18T13:16:18;34.30;86.20
17565;DHT22;55308;52.134;5.606;2022-07-18T13:18:45;33.90;86.10
17565;DHT22;55308;52.134;5.606;2022-07-18T13:21:11;33.40;88.20
17565;DHT22;55308;52.134;5.606;2022-07-18T13:23:39;33.50;83.40
17565;DHT22;55308;52.134;5.606;2022-07-18T13:26:07;33.60;84.10
17565;DHT22;55308;52.134;5.606;2022-07-18T13:28:34;33.80;84.10
17565;DHT22;55308;52.134;5.606;2022-07-18T13:31:01;33.80;86.80
17565;DHT22;55308;52.134;5.606;2022-07-18T13:33:28;33.70;85.30
17565;DHT22;55308;52.134;5.606;2022-07-18T13:35:55;33.80;82.90
17565;DHT22;55308;52.134;5.606;2022-07-18T13:38:21;34.00;82.80
17565;DHT22;55308;52.134;5.606;2022-07-18T13:40:49;34.10;82.00
17565;DHT22;55308;52.134;5.606;2022-07-18T13:43:17;33.80;82.80
17565;DHT22;55308;52.134;5.606;2022-07-18T13:45:44;33.60;84.00
17565;DHT22;55308;52.134;5.606;2022-07-18T13:48:11;33.60;84.30
17565;DHT22;55308;52.134;5.606;2022-07-18T13:50:38;33.70;85.80
17565;DHT22;55308;52.134;5.606;2022-07-18T13:53:05;34.10;83.90
17565;DHT22;55308;52.134;5.606;2022-07-18T13:55:32;34.30;83.80
17565;DHT22;55308;52.134;5.606;2022-07-18T13:58:00;34.50;82.80
17565;DHT22;55308;52.134;5.606;2022-07-18T14:00:27;34.60;81.40
17565;DHT22;55308;52.134;5.606;2022-07-18T14:02:54;34.20;82.60
17565;DHT22;55308;52.134;5.606;2022-07-18T14:05:21;34.00;83.50
17565;DHT22;55308;52.134;5.606;2022-07-18T14:07:47;33.60;82.80
17565;DHT22;55308;52.134;5.606;2022-07-18T14:10:15;33.70;79.90
17565;DHT22;55308;52.134;5.606;2022-07-18T14:12:42;33.80;83.70
17565;DHT22;55308;52.134;5.606;2022-07-18T14:15:11;34.00;85.90
17565;DHT22;55308;52.134;5.606;2022-07-18T14:17:38;34.00;87.40
17565;DHT22;55308;52.134;5.606;2022-07-18T14:20:06;34.00;86.70
17565;DHT22;55308;52.134;5.606;2022-07-18T14:22:34;33.80;85.20
17565;DHT22;55308;52.134;5.606;2022-07-18T14:25:00;33.60;86.10
17565;DHT22;55308;52.134;5.606;2022-07-18T14:27:27;33.90;85.80
17565;DHT22;55308;52.134;5.606;2022-07-18T14:29:54;34.00;85.80
17565;DHT22;55308;52.134;5.606;2022-07-18T14:32:22;34.10;85.60
17565;DHT22;55308;52.134;5.606;2022-07-18T14:34:48;34.20;85.40
17565;DHT22;55308;52.134;5.606;2022-07-18T14:37:15;34.00;86.70
17565;DHT22;55308;52.134;5.606;2022-07-18T14:39:42;33.80;85.30
17565;DHT22;55308;52.134;5.606;2022-07-18T14:42:09;34.00;85.60
17565;DHT22;55308;52.134;5.606;2022-07-18T14:44:38;34.10;84.40
17565;DHT22;55308;52.134;5.606;2022-07-18T14:47:05;34.00;84.20
17565;DHT22;55308;52.134;5.606;2022-07-18T14:49:33;33.90;84.90
17565;DHT22;55308;52.134;5.606;2022-07-18T14:52:00;33.80;85.30
17565;DHT22;55308;52.134;5.606;2022-07-18T14:54:27;34.00;84.80
17565;DHT22;55308;52.134;5.606;2022-07-18T14:56:55;34.00;85.90
17565;DHT22;55308;52.134;5.606;2022-07-18T14:59:22;34.00;85.90
17565;DHT22;55308;52.134;5.606;2022-07-18T15:01:49;34.20;85.20
17565;DHT22;55308;52.134;5.606;2022-07-18T15:04:16;34.20;88.60
17565;DHT22;55308;52.134;5.606;2022-07-18T15:06:44;34.00;88.40
17565;DHT22;55308;52.134;5.606;2022-07-18T15:09:11;34.00;87.60
17565;DHT22;55308;52.134;5.606;2022-07-18T15:11:38;34.00;86.80
17565;DHT22;55308;52.134;5.606;2022-07-18T15:14:05;33.80;87.20
17565;DHT22;55308;52.134;5.606;2022-07-18T15:16:32;33.80;89.60
17565;DHT22;55308;52.134;5.606;2022-07-18T15:18:58;33.50;87.90
17565;DHT22;55308;52.134;5.606;2022-07-18T15:21:25;33.90;87.70
17565;DHT22;55308;52.134;5.606;2022-07-18T15:23:53;34.00;86.30
17565;DHT22;55308;52.134;5.606;2022-07-18T15:26:20;34.00;86.90
17565;DHT22;55308;52.134;5.606;2022-07-18T15:28:46;33.80;86.70
17565;DHT22;55308;52.134;5.606;2022-07-18T15:31:13;33.60;88.40
17565;DHT22;55308;52.134;5.606;2022-07-18T15:33:40;33.70;87.40
17565;DHT22;55308;52.134;5.606;2022-07-18T15:36:07;33.80;87.20
17565;DHT22;55308;52.134;5.606;2022-07-18T15:38:34;33.80;89.30